createdAt,value
2022-10-17T00:02:07.809Z,12
2022-10-17T00:07:16.809Z,12.06
2022-10-17T00:12:25.821Z,12.06
2022-10-17T00:17:34.818Z,12.06
2022-10-17T00:22:43.737Z,12
2022-10-17T00:27:52.834Z,11.94
2022-10-17T00:33:01.834Z,11.94
2022-10-17T00:38:10.817Z,11.94
2022-10-17T00:43:19.876Z,11.94
2022-10-17T00:48:29.133Z,11.94
2022-10-17T00:53:38.086Z,11.94
2022-10-17T00:58:47.211Z,12
2022-10-17T01:03:56.275Z,12
2022-10-17T01:09:05.390Z,12.06
2022-10-17T01:14:14.447Z,12.13
2022-10-17T01:24:32.390Z,12.06
2022-10-17T01:29:41.379Z,12.06
2022-10-17T01:34:50.296Z,12
2022-10-17T01:39:59.278Z,12
2022-10-17T01:55:26.404Z,12.06
2022-10-17T02:05:44.369Z,11.94
2022-10-17T02:10:53.427Z,11.88
2022-10-17T02:21:11.434Z,11.75
2022-10-17T02:26:20.401Z,11.75
2022-10-17T02:31:29.578Z,11.69
2022-10-17T02:36:38.528Z,11.69
2022-10-17T02:41:47.674Z,11.69
2022-10-17T02:46:56.552Z,11.69
2022-10-17T02:52:05.582Z,11.69
2022-10-17T02:57:14.750Z,11.69
2022-10-17T03:02:23.555Z,11.69
2022-10-17T03:07:32.510Z,11.69
2022-10-17T03:12:41.703Z,11.69
2022-10-17T03:17:50.704Z,11.69
2022-10-17T03:22:59.712Z,11.63
2022-10-17T03:28:08.685Z,11.63
2022-10-17T03:33:17.892Z,11.56
2022-10-17T03:38:27.020Z,11.63
2022-10-17T03:43:35.924Z,11.63
2022-10-17T03:48:44.866Z,11.63
2022-10-17T03:53:53.897Z,11.69
2022-10-17T03:59:02.885Z,11.69
2022-10-17T04:04:11.967Z,11.69
2022-10-17T04:09:20.795Z,11.75
2022-10-17T04:14:33.094Z,11.88
2022-10-17T04:19:42.124Z,11.88
2022-10-17T04:24:51.043Z,11.81
2022-10-17T04:30:00.086Z,11.81
2022-10-17T04:35:09.001Z,11.81
2022-10-17T04:40:17.873Z,11.81
2022-10-17T04:45:26.984Z,11.81
2022-10-17T04:50:35.786Z,11.75
2022-10-17T04:55:44.916Z,11.69
2022-10-17T05:00:53.936Z,11.56
2022-10-17T05:06:02.940Z,11.44
2022-10-17T05:11:11.860Z,11.38
2022-10-17T05:16:21.129Z,11.31
2022-10-17T05:21:30.135Z,11.25
2022-10-17T05:26:38.962Z,11.25
2022-10-17T05:31:47.883Z,11.19
2022-10-17T05:36:56.855Z,11.12
2022-10-17T05:42:05.780Z,11.06
2022-10-17T05:47:14.771Z,11.06
2022-10-17T05:52:23.865Z,11.06
2022-10-17T05:57:41.597Z,11.06
2022-10-17T06:02:50.817Z,11.06
2022-10-17T06:08:01.153Z,11.12
2022-10-17T06:13:08.851Z,11.19
2022-10-17T06:18:20.765Z,11.19
2022-10-17T06:23:29.697Z,11.19
2022-10-17T06:28:38.670Z,11.31
2022-10-17T06:33:47.635Z,11.38
2022-10-17T06:38:59.605Z,11.44
2022-10-17T06:54:15.755Z,11.75
2022-10-17T06:59:24.997Z,12.37
2022-10-17T07:04:34.233Z,12.88
2022-10-17T07:09:43.376Z,13.25
2022-10-17T07:14:52.395Z,13.62
2022-10-17T07:20:01.366Z,13.75
2022-10-17T07:25:10.458Z,13.94
2022-10-17T07:30:19.649Z,14.06
2022-10-17T07:35:28.747Z,14.31
2022-10-17T07:40:37.877Z,14.56
2022-10-17T07:45:47.147Z,14.81
2022-10-17T07:50:56.433Z,15.06
2022-10-17T07:56:05.508Z,15.25
2022-10-17T08:01:15.131Z,15.38
2022-10-17T08:06:23.890Z,15.75
2022-10-17T08:11:33.090Z,16
2022-10-17T08:16:42.253Z,16.31
2022-10-17T08:27:00.602Z,17.19
2022-10-17T08:32:10.378Z,17.81
2022-10-17T08:37:19.773Z,18.31
2022-10-17T08:42:29.266Z,18.75
2022-10-17T08:47:38.518Z,18.94
2022-10-17T08:52:47.806Z,19.06
2022-10-17T08:57:57.004Z,19.12
2022-10-17T09:03:05.886Z,19.06
2022-10-17T09:13:23.854Z,19.25
2022-10-17T09:18:32.816Z,19.69
2022-10-17T09:23:41.837Z,19.62
2022-10-17T09:28:50.636Z,19.62
2022-10-17T09:33:59.105Z,19.56
2022-10-17T09:44:17.119Z,20
2022-10-17T09:49:26.128Z,20.31
2022-10-17T09:54:35.081Z,20.44
2022-10-17T09:59:44.038Z,20.81
2022-10-17T10:05:08.520Z,21.06
2022-10-17T10:10:02.148Z,21.62
2022-10-17T10:15:11.062Z,21.75
2022-10-17T10:20:20.159Z,21.44
2022-10-17T10:25:29.141Z,21.87
2022-10-17T10:30:39.160Z,22.31
2022-10-17T10:40:56.708Z,22.31
2022-10-17T10:46:05.859Z,22.13
2022-10-17T10:51:14.893Z,22.13
2022-10-17T10:56:24.121Z,22.44
2022-10-17T11:01:33.307Z,22.37
2022-10-17T11:06:42.179Z,22.31
2022-10-17T11:11:51.265Z,22.25
2022-10-17T11:17:00.242Z,22.19
2022-10-17T11:27:18.436Z,22.62
2022-10-17T11:32:28.103Z,22.75
2022-10-17T11:37:36.764Z,22.69
2022-10-17T11:42:48.694Z,22.62
2022-10-17T11:47:57.879Z,22.75
2022-10-17T11:53:06.952Z,22.81
2022-10-17T11:58:15.847Z,22.81
2022-10-17T12:03:24.921Z,22.87
2022-10-17T12:18:30.981Z,23.31
2022-10-17T12:23:39.969Z,23.31
2022-10-17T12:28:49.197Z,23.38
2022-10-17T12:34:01.408Z,23.62
2022-10-17T12:39:10.559Z,23.62
2022-10-17T12:44:19.501Z,23.87
2022-10-17T12:54:42.118Z,23.94
2022-10-17T12:59:46.621Z,23.87
2022-10-17T13:04:55.713Z,24.12
2022-10-17T13:10:04.734Z,24.19
2022-10-17T13:20:23.548Z,24.69
2022-10-17T13:25:31.942Z,25.31
2022-10-17T13:30:40.942Z,25.62
2022-10-17T13:36:05.392Z,26.06
2022-10-17T13:41:06.032Z,26.37
2022-10-17T13:46:25.808Z,26.44
2022-10-17T13:51:17.088Z,25.62
2022-10-17T13:56:29.102Z,24.87
2022-10-17T14:01:35.170Z,25.69
2022-10-17T14:11:53.151Z,24.5
2022-10-17T14:17:05.136Z,24.25
2022-10-17T14:22:14.198Z,24
2022-10-17T14:27:23.241Z,23.87
2022-10-17T14:37:44.398Z,23.62
2022-10-17T14:42:53.418Z,23.44
2022-10-17T14:48:02.341Z,23.19
2022-10-17T14:53:11.388Z,23.06
2022-10-17T14:58:20.416Z,22.87
2022-10-17T15:03:29.421Z,22.81
2022-10-17T15:08:38.432Z,22.69
2022-10-17T15:13:47.144Z,22.5
2022-10-17T15:18:56.156Z,22.19
2022-10-17T15:24:04.998Z,21.87
2022-10-17T15:29:13.894Z,21.69
2022-10-17T15:34:22.749Z,21.62
2022-10-17T15:39:31.519Z,21.56
2022-10-17T15:44:40.586Z,21.56
2022-10-17T15:49:52.698Z,21.56
2022-10-17T15:55:02.595Z,21.56
2022-10-17T16:00:16.453Z,21.37
2022-10-17T16:05:19.591Z,21.06
2022-10-17T16:10:28.502Z,20.62
2022-10-17T16:15:37.478Z,20.25
2022-10-17T16:20:46.321Z,19.94
2022-10-17T16:25:55.173Z,19.62
2022-10-17T16:31:04.109Z,19.37
2022-10-17T16:36:13.009Z,19.25
2022-10-17T16:41:21.900Z,19.19
2022-10-17T16:46:30.949Z,19.19
2022-10-17T16:51:40.091Z,19.19
2022-10-17T16:56:49.004Z,19.06
2022-10-17T17:01:58.004Z,18.69
2022-10-17T17:07:06.730Z,18.44
2022-10-17T17:12:24.626Z,18.25
2022-10-17T17:17:48.633Z,18.12
2022-10-17T17:22:42.582Z,17.94
2022-10-17T17:27:51.492Z,17.81
2022-10-17T17:33:00.474Z,17.69
2022-10-17T17:38:09.403Z,17.56
2022-10-17T17:43:18.266Z,17.5
2022-10-17T17:48:27.393Z,17.44
2022-10-17T17:53:36.346Z,17.37
2022-10-17T17:58:45.438Z,17.37
2022-10-17T18:03:54.431Z,17.37
2022-10-17T18:09:03.283Z,17.31
2022-10-17T18:14:12.244Z,17.19
2022-10-17T18:19:21.218Z,17.12
2022-10-17T18:24:30.106Z,17.12
2022-10-17T18:29:39.141Z,17.12
2022-10-17T18:34:48.079Z,17.06
2022-10-17T18:39:57.046Z,17.06
2022-10-17T18:45:06.126Z,17.06
2022-10-17T18:50:15.075Z,17.12
2022-10-17T18:55:24.136Z,17.12
2022-10-17T19:00:33.129Z,17.12
2022-10-17T19:05:42.118Z,17.12
2022-10-17T19:10:51.193Z,17.06
2022-10-17T19:16:00.159Z,17.06
2022-10-17T19:21:08.995Z,17
2022-10-17T19:26:17.940Z,16.94
2022-10-17T19:31:27.429Z,16.81
2022-10-17T19:36:35.954Z,16.75
2022-10-17T19:41:44.927Z,16.62
2022-10-17T19:46:53.875Z,16.56
2022-10-17T19:52:02.769Z,16.44
2022-10-17T19:57:11.878Z,16.31
2022-10-17T20:02:20.860Z,16.31
2022-10-17T20:07:29.826Z,16.37
2022-10-17T20:12:38.865Z,16.37
2022-10-17T20:17:47.913Z,16.31
2022-10-17T20:22:57.121Z,16.37
2022-10-17T20:28:05.935Z,16.25
2022-10-17T20:33:14.876Z,16.25
2022-10-17T20:38:23.888Z,16.19
2022-10-17T20:43:32.841Z,16.19
2022-10-17T20:48:41.824Z,16.12
2022-10-17T20:53:50.870Z,16.12
2022-10-17T20:58:59.970Z,16.06
2022-10-17T21:09:17.859Z,16
2022-10-17T21:14:26.867Z,15.81
2022-10-17T21:19:35.827Z,15.81
2022-10-17T21:24:44.842Z,15.81
2022-10-17T21:29:53.957Z,15.75
2022-10-17T21:35:02.907Z,15.81
2022-10-17T21:40:11.910Z,15.88
2022-10-17T21:50:19.150Z,15.75
2022-10-17T21:55:28.201Z,15.75
2022-10-17T22:00:37.210Z,15.81
2022-10-17T22:05:46.133Z,15.75
2022-10-17T22:10:55.222Z,15.69
2022-10-17T22:16:04.270Z,15.75
2022-10-17T22:21:13.398Z,15.69
2022-10-17T22:26:22.510Z,15.63
2022-10-17T22:31:31.329Z,15.63
2022-10-17T22:36:40.314Z,15.5
2022-10-17T22:41:49.393Z,15.31
2022-10-17T22:46:58.193Z,15.25
2022-10-17T22:52:07.079Z,15.19
2022-10-17T22:57:16.094Z,15.19
2022-10-17T23:02:25.070Z,15.19
2022-10-17T23:07:34.118Z,15.25
2022-10-17T23:12:43.153Z,15.25
2022-10-17T23:17:52.056Z,15.44
2022-10-17T23:23:01.090Z,15.56
2022-10-17T23:28:10.157Z,15.5
2022-10-17T23:33:19.081Z,15.44
2022-10-17T23:38:28.163Z,15.38
2022-10-17T23:43:37.100Z,15.38
2022-10-17T23:48:45.955Z,15.38
2022-10-17T23:53:55.042Z,15.31
2022-10-17T23:59:03.984Z,15.25
